Time;durP1;ratioP1;P1;durP2;ratioP2;P2;SDS_P1;SDS_P2;PMS_P1;PMS_P2;Temp;Humidity;BMP_temperature;BMP_pressure;BME280_temperature;BME280_humidity;BME280_pressure;Samples;Min_cycle;Max_cycle;Signal;HPM_P1;HPM_P2
2023/02/08 00:00:28;;;;;;;;;;;;;;;16.41;65.35;102913.09;7398859;19;1709;-42
2023/02/08 00:02:58;;;;;;;;;;;;;;;16.34;63.50;102896.47;7397377;19;1918;-42
2023/02/08 00:05:30;;;;;;;;;;;;;;;16.48;65.04;102902.06;7398291;19;2021;-41
2023/02/08 00:07:58;;;;;;;;;;;;;;;16.41;65.33;102902.41;7393812;19;2312;-41
2023/02/08 00:10:26;;;;;;;;;;;;;;;16.38;65.32;102913.22;7399073;19;2073;-40
2023/02/08 00:12:54;;;;;;;;;;;;;;;16.43;65.36;102906.78;7394220;19;2487;-40
2023/02/08 00:15:23;;;;;;;;;;;;;;;16.51;65.13;102914.41;7394872;19;1913;-40
2023/02/08 00:17:51;;;;;;;;;;;;;;;16.42;65.58;102913.03;7395379;19;1823;-39
2023/02/08 00:20:22;;;;;;;;;;;;;;;16.33;65.79;102909.88;7399102;19;1929;-40
2023/02/08 00:22:50;;;;;;;;;;;;;;;16.24;66.09;102912.00;7398100;19;2010;-39
2023/02/08 00:25:19;;;;;;;;;;;;;;;16.18;65.98;102920.28;7401295;19;1726;-40
2023/02/08 00:27:47;;;;;;;;;;;;;;;16.15;66.04;102916.88;7401738;19;2097;-40
2023/02/08 00:30:15;;;;;;;;;;;;;;;16.09;66.27;102912.66;7401198;19;2133;-40
2023/02/08 00:32:44;;;;;;;;;;;;;;;16.01;66.39;102912.97;7400029;19;2182;-40
2023/02/08 00:35:12;;;;;;;;;;;;;;;16.02;66.30;102924.53;7399882;19;1986;-40
2023/02/08 00:37:43;;;;;;;;;;;;;;;16.00;66.57;102910.38;7398878;19;1855;-40
2023/02/08 00:40:12;;;;;;;;;;;;;;;15.96;66.77;102935.47;7399939;19;2067;-40
2023/02/08 00:42:40;;;;;;;;;;;;;;;15.92;66.77;102921.38;7398740;19;2268;-40
2023/02/08 00:45:09;;;;;;;;;;;;;;;15.91;66.90;102922.28;7399645;19;1943;-39
2023/02/08 00:47:37;;;;;;;;;;;;;;;15.88;66.55;102925.94;7400886;19;1950;-39
2023/02/08 00:50:06;;;;;;;;;;;;;;;15.86;66.41;102927.81;7399084;19;2098;-39
2023/02/08 00:52:34;;;;;;;;;;;;;;;15.83;66.72;102937.75;7398050;19;2022;-40
2023/02/08 00:55:05;;;;;;;;;;;;;;;15.80;66.93;102928.06;7403093;19;2029;-39
2023/02/08 00:57:34;;;;;;;;;;;;;;;15.83;66.51;102943.06;7407266;19;2007;-40
2023/02/08 01:00:03;;;;;;;;;;;;;;;15.80;66.46;102932.53;7406849;19;2143;-39
2023/02/08 01:02:31;;;;;;;;;;;;;;;15.80;66.72;102941.41;7404776;19;1867;-40
2023/02/08 01:04:59;;;;;;;;;;;;;;;15.74;66.46;102941.66;7407706;19;1485;-39
2023/02/08 01:07:28;;;;;;;;;;;;;;;15.75;67.00;102948.72;7405439;19;1726;-40
2023/02/08 01:09:56;;;;;;;;;;;;;;;15.76;66.93;102942.47;7406895;19;1970;-39
2023/02/08 01:12:27;;;;;;;;;;;;;;;15.74;66.64;102952.31;7406474;19;2090;-40
2023/02/08 01:14:55;;;;;;;;;;;;;;;15.72;66.91;102954.16;7405924;19;2067;-40
2023/02/08 01:17:24;;;;;;;;;;;;;;;15.69;66.84;102954.25;7406022;19;1934;-39
2023/02/08 01:19:52;;;;;;;;;;;;;;;15.71;66.51;102960.41;7405833;19;1732;-39
2023/02/08 01:22:20;;;;;;;;;;;;;;;15.69;66.80;102964.94;7405524;19;2047;-39
2023/02/08 01:24:48;;;;;;;;;;;;;;;15.62;66.78;102960.78;7406871;19;2074;-39
2023/02/08 01:27:17;;;;;;;;;;;;;;;15.61;66.61;102953.69;7406744;19;1913;-40
2023/02/08 01:29:48;;;;;;;;;;;;;;;15.60;67.03;102951.97;7405681;19;1797;-40
2023/02/08 01:32:16;;;;;;;;;;;;;;;15.62;67.06;102960.78;7407340;19;1987;-39
2023/02/08 01:34:44;;;;;;;;;;;;;;;15.59;66.97;102959.06;7405335;19;2232;-39
2023/02/08 01:37:13;;;;;;;;;;;;;;;15.59;66.94;102961.75;7404243;19;1780;-39
2023/02/08 01:39:42;;;;;;;;;;;;;;;15.58;66.61;102968.03;7403554;19;1845;-40
2023/02/08 01:42:14;;;;;;;;;;;;;;;15.59;66.94;102967.06;7404746;19;1892;-40
2023/02/08 01:44:58;;;;;;;;;;;;;;;15.57;66.86;102968.06;7404828;19;2022;-40
2023/02/08 01:47:29;;;;;;;;;;;;;;;15.55;67.11;102964.59;7405752;19;2117;-39
2023/02/08 01:49:57;;;;;;;;;;;;;;;15.54;67.01;102974.41;7405930;19;1812;-40
2023/02/08 01:52:27;;;;;;;;;;;;;;;15.52;66.81;102970.94;7404797;19;1918;-40
2023/02/08 01:54:58;;;;;;;;;;;;;;;15.46;66.79;102976.50;7405813;19;1950;-40
2023/02/08 01:57:26;;;;;;;;;;;;;;;15.47;66.90;102983.56;7405789;19;2031;-39
2023/02/08 01:59:56;;;;;;;;;;;;;;;15.50;67.02;102984.31;7404055;19;2098;-39
2023/02/08 02:02:25;;;;;;;;;;;;;;;15.48;66.89;102983.50;7403034;19;2059;-40
2023/02/08 02:04:57;;;;;;;;;;;;;;;15.47;66.96;102989.75;7405782;19;1690;-40
2023/02/08 02:07:27;;;;;;;;;;;;;;;15.47;66.85;102984.41;7401675;19;1941;-39
2023/02/08 02:09:59;;;;;;;;;;;;;;;15.51;66.84;103006.50;7404794;19;1858;-39
2023/02/08 02:12:28;;;;;;;;;;;;;;;15.46;66.82;103003.16;7404502;19;1815;-39
2023/02/08 02:14:57;;;;;;;;;;;;;;;15.45;66.80;103012.06;7404571;19;1642;-39
2023/02/08 02:17:25;;;;;;;;;;;;;;;15.43;66.88;102993.47;7403360;19;1867;-39
2023/02/08 02:20:01;;;;;;;;;;;;;;;15.48;66.61;103026.16;7404455;19;1903;-39
2023/02/08 02:22:50;;;;;;;;;;;;;;;15.43;67.04;103024.59;7403214;19;1857;-39
2023/02/08 02:25:24;;;;;;;;;;;;;;;15.40;67.10;103020.25;7403072;19;2233;-39
2023/02/08 02:28:03;;;;;;;;;;;;;;;15.38;66.87;103027.44;7403822;19;1927;-39
2023/02/08 02:30:41;;;;;;;;;;;;;;;15.37;66.85;103036.34;7404235;19;2058;-39
2023/02/08 02:33:21;;;;;;;;;;;;;;;15.38;66.91;103027.44;7403935;19;1777;-39
2023/02/08 02:35:57;;;;;;;;;;;;;;;15.39;66.50;103037.16;7402517;19;1783;-39
2023/02/08 02:38:31;;;;;;;;;;;;;;;15.39;67.11;103046.97;7402077;19;2037;-39
2023/02/08 02:41:05;;;;;;;;;;;;;;;15.45;66.37;103036.94;7403194;19;2119;-40
2023/02/08 02:43:40;;;;;;;;;;;;;;;15.89;65.28;103047.75;7402105;19;2113;-39
2023/02/08 02:46:15;;;;;;;;;;;;;;;15.89;65.53;103055.75;7404770;19;1741;-40
2023/02/08 02:48:49;;;;;;;;;;;;;;;15.72;65.88;103068.84;7404814;19;2004;-40
2023/02/08 02:51:20;;;;;;;;;;;;;;;16.32;63.61;103058.53;7403016;19;2066;-40
2023/02/08 02:53:54;;;;;;;;;;;;;;;17.46;61.02;103049.22;7404142;19;1992;-39
2023/02/08 02:56:24;;;;;;;;;;;;;;;18.11;58.72;103051.59;7403361;19;2114;-39
2023/02/08 02:58:52;;;;;;;;;;;;;;;18.39;58.21;103050.25;7404268;19;1863;-39
2023/02/08 03:01:24;;;;;;;;;;;;;;;18.71;57.58;103050.47;7401413;19;1767;-39
2023/02/08 03:03:55;;;;;;;;;;;;;;;18.98;56.64;103054.44;7401029;19;2122;-40
2023/02/08 03:06:30;;;;;;;;;;;;;;;18.94;56.69;103051.97;7402023;19;1962;-40
2023/02/08 03:09:14;;;;;;;;;;;;;;;18.91;57.29;103063.72;7402823;19;1734;-39
2023/02/08 03:11:46;;;;;;;;;;;;;;;18.92;57.32;103073.53;7400776;19;2138;-40
2023/02/08 03:14:30;;;;;;;;;;;;;;;18.99;57.02;103080.28;7402114;19;2113;-39
2023/02/08 03:17:12;;;;;;;;;;;;;;;19.17;56.65;103069.56;7402688;19;2027;-40
2023/02/08 03:19:46;;;;;;;;;;;;;;;19.21;56.50;103079.19;7398553;19;2036;-40
2023/02/08 03:22:16;;;;;;;;;;;;;;;19.18;56.52;103082.00;7400584;19;1749;-40
2023/02/08 03:24:48;;;;;;;;;;;;;;;19.26;56.28;103083.34;7401189;19;2044;-40
2023/02/08 03:27:20;;;;;;;;;;;;;;;19.39;55.77;103088.06;7403448;19;1975;-40
2023/02/08 03:29:52;;;;;;;;;;;;;;;19.22;56.46;103088.97;7402668;19;2080;-40
2023/02/08 03:32:23;;;;;;;;;;;;;;;19.13;56.71;103081.41;7402766;19;2004;-40
2023/02/08 03:34:57;;;;;;;;;;;;;;;19.08;56.42;103093.22;7401579;19;1939;-40
2023/02/08 03:37:28;;;;;;;;;;;;;;;19.13;56.73;103097.50;7401812;19;1956;-40
2023/02/08 03:40:00;;;;;;;;;;;;;;;19.20;56.33;103101.56;7401621;19;2067;-40
2023/02/08 03:42:29;;;;;;;;;;;;;;;19.20;56.17;103080.09;7401769;19;1943;-40
2023/02/08 03:45:01;;;;;;;;;;;;;;;19.24;56.52;103095.97;7401565;19;1983;-40
2023/02/08 03:47:31;;;;;;;;;;;;;;;19.24;56.54;103103.16;7401369;19;1788;-39
2023/02/08 03:50:05;;;;;;;;;;;;;;;19.20;56.68;103101.56;7401782;19;2106;-40
2023/02/08 03:52:34;;;;;;;;;;;;;;;19.33;56.04;103102.66;7399280;19;1787;-39
2023/02/08 03:55:05;;;;;;;;;;;;;;;19.25;56.32;103112.94;7401182;19;2220;-40
2023/02/08 03:57:36;;;;;;;;;;;;;;;19.38;56.19;103102.44;7402020;19;2024;-40
2023/02/08 04:00:07;;;;;;;;;;;;;;;19.16;56.29;103105.34;7400877;19;1903;-40
2023/02/08 04:02:39;;;;;;;;;;;;;;;18.40;58.34;103118.94;7400494;19;1853;-40
2023/02/08 04:05:10;;;;;;;;;;;;;;;17.75;60.05;103124.63;7402104;19;1627;-40
2023/02/08 04:07:39;;;;;;;;;;;;;;;18.16;59.23;103124.53;7398371;19;1944;-40
2023/02/08 04:10:07;;;;;;;;;;;;;;;18.55;57.63;103131.59;7398502;19;1985;-41
2023/02/08 04:12:36;;;;;;;;;;;;;;;18.71;57.64;103130.88;7399841;19;1861;-40
2023/02/08 04:15:04;;;;;;;;;;;;;;;18.86;56.97;103124.75;7399533;19;1691;-40
2023/02/08 04:17:32;;;;;;;;;;;;;;;18.86;56.98;103136.38;7400992;19;1598;-40
2023/02/08 04:20:00;;;;;;;;;;;;;;;18.71;57.86;103146.94;7399622;19;1779;-40
2023/02/08 04:22:32;;;;;;;;;;;;;;;18.53;57.72;103140.69;7400541;19;2074;-40
2023/02/08 04:25:00;;;;;;;;;;;;;;;18.34;58.39;103146.03;7399022;19;2075;-40
2023/02/08 04:27:29;;;;;;;;;;;;;;;18.33;58.40;103147.00;7400491;19;1852;-40
2023/02/08 04:29:57;;;;;;;;;;;;;;;18.28;58.37;103172.19;7401225;19;1926;-40
2023/02/08 04:32:25;;;;;;;;;;;;;;;18.45;58.23;103157.13;7401412;19;2058;-40
2023/02/08 04:34:53;;;;;;;;;;;;;;;18.56;57.90;103165.53;7399951;19;2045;-41
2023/02/08 04:37:22;;;;;;;;;;;;;;;18.53;57.95;103162.97;7398965;19;2142;-41
2023/02/08 04:39:53;;;;;;;;;;;;;;;18.56;57.53;103165.53;7398842;19;2335;-40
2023/02/08 04:42:21;;;;;;;;;;;;;;;18.55;57.81;103179.84;7398460;19;1815;-40
2023/02/08 04:44:49;;;;;;;;;;;;;;;18.60;57.45;103180.50;7397431;19;1853;-41
2023/02/08 04:47:17;;;;;;;;;;;;;;;18.65;57.40;103183.81;7400457;19;1999;-40
2023/02/08 04:49:46;;;;;;;;;;;;;;;18.69;57.50;103187.22;7398439;19;1793;-41
2023/02/08 04:52:14;;;;;;;;;;;;;;;18.68;57.56;103190.81;7398584;19;1793;-41
2023/02/08 04:54:42;;;;;;;;;;;;;;;18.62;57.48;103197.38;7398493;19;1891;-40
2023/02/08 04:57:13;;;;;;;;;;;;;;;18.64;57.25;103189.25;7399167;19;1602;-41
2023/02/08 04:59:42;;;;;;;;;;;;;;;18.68;57.45;103191.72;7399459;19;1692;-41
2023/02/08 05:02:10;;;;;;;;;;;;;;;18.77;57.32;103189.53;7398219;19;2063;-41
2023/02/08 05:04:38;;;;;;;;;;;;;;;18.66;57.24;103207.00;7395943;19;1899;-40
2023/02/08 05:07:07;;;;;;;;;;;;;;;18.50;57.67;103216.69;7396275;19;1746;-41
2023/02/08 05:09:35;;;;;;;;;;;;;;;18.43;58.19;103215.25;7398344;19;1803;-41
2023/02/08 05:12:03;;;;;;;;;;;;;;;18.53;58.27;103224.59;7399660;19;1616;-40
2023/02/08 05:14:34;;;;;;;;;;;;;;;18.93;57.15;103221.84;7398445;19;1630;-41
2023/02/08 05:17:02;;;;;;;;;;;;;;;19.25;56.30;103236.34;7398561;19;1747;-41
2023/02/08 05:19:31;;;;;;;;;;;;;;;19.39;56.06;103212.34;7399072;19;1684;-41
2023/02/08 05:21:59;;;;;;;;;;;;;;;19.58;55.57;103230.22;7398211;19;1784;-37
2023/02/08 05:24:28;;;;;;;;;;;;;;;19.51;55.98;103250.25;7394914;19;2185;-37
2023/02/08 05:26:56;;;;;;;;;;;;;;;19.39;55.99;103227.59;7395730;19;1657;-36
2023/02/08 05:29:24;;;;;;;;;;;;;;;19.23;56.55;103240.91;7395427;19;1768;-37
2023/02/08 05:31:55;;;;;;;;;;;;;;;19.20;56.64;103246.41;7396702;19;1712;-36
2023/02/08 05:34:23;;;;;;;;;;;;;;;19.26;55.92;103252.38;7399120;19;1799;-36
2023/02/08 05:36:51;;;;;;;;;;;;;;;19.45;55.75;103238.00;7396547;19;2173;-36
2023/02/08 05:39:20;;;;;;;;;;;;;;;19.39;55.58;103252.59;7397377;19;1741;-36
2023/02/08 05:41:48;;;;;;;;;;;;;;;19.17;55.38;103263.53;7399608;19;2067;-35
2023/02/08 05:44:16;;;;;;;;;;;;;;;19.15;55.50;103269.94;7401967;19;1868;-36
2023/02/08 05:46:45;;;;;;;;;;;;;;;19.13;55.14;103267.31;7402763;19;3067;-36
2023/02/08 05:49:16;;;;;;;;;;;;;;;19.08;55.01;103277.44;7402677;19;1854;-35
2023/02/08 05:51:44;;;;;;;;;;;;;;;18.73;56.02;103300.53;7403750;19;1915;-36
2023/02/08 05:54:12;;;;;;;;;;;;;;;18.00;57.57;103289.50;7405866;19;2168;-36
2023/02/08 05:56:40;;;;;;;;;;;;;;;17.59;58.77;103302.84;7405943;19;2190;-36
2023/02/08 05:59:09;;;;;;;;;;;;;;;17.83;58.37;103314.31;7405609;19;1969;-35
2023/02/08 06:01:37;;;;;;;;;;;;;;;18.56;56.63;103283.44;7402405;19;1892;-35
2023/02/08 06:04:05;;;;;;;;;;;;;;;19.23;55.06;103289.19;7402679;19;2131;-36
2023/02/08 06:06:36;;;;;;;;;;;;;;;19.35;54.37;103307.38;7405352;19;1862;-35
2023/02/08 06:09:05;;;;;;;;;;;;;;;19.26;54.72;103307.84;7405174;19;2054;-36
2023/02/08 06:11:34;;;;;;;;;;;;;;;19.26;54.63;103295.28;7405000;19;2035;-35
2023/02/08 06:14:04;;;;;;;;;;;;;;;19.35;54.65;103307.38;7405890;19;1790;-35
2023/02/08 06:16:33;;;;;;;;;;;;;;;19.34;54.68;103323.53;7404143;19;1933;-37
2023/02/08 06:19:01;;;;;;;;;;;;;;;19.28;54.24;103308.63;7404561;19;2008;-35
2023/02/08 06:21:29;;;;;;;;;;;;;;;19.16;54.20;103311.88;7391165;19;2028;-35
2023/02/08 06:24:02;;;;;;;;;;;;;;;19.22;54.36;103314.31;7403847;19;2084;-35
2023/02/08 06:26:31;;;;;;;;;;;;;;;19.31;54.55;103308.47;7403131;19;1731;-35
2023/02/08 06:29:00;;;;;;;;;;;;;;;19.30;54.41;103311.22;7402329;19;2118;-35
2023/02/08 06:31:28;;;;;;;;;;;;;;;19.36;53.95;103322.53;7401834;19;2021;-35
2023/02/08 06:33:56;;;;;;;;;;;;;;;19.38;54.22;103309.06;7403259;19;1861;-35
2023/02/08 06:36:25;;;;;;;;;;;;;;;19.38;54.23;103309.06;7401911;19;1762;-35
2023/02/08 06:38:53;;;;;;;;;;;;;;;19.41;54.08;103311.56;7401242;19;1672;-35
2023/02/08 06:41:24;;;;;;;;;;;;;;;19.44;54.21;103304.25;7400006;19;1665;-35
2023/02/08 06:43:52;;;;;;;;;;;;;;;19.41;54.12;103308.88;7401398;19;1862;-36
2023/02/08 06:46:20;;;;;;;;;;;;;;;19.50;54.02;103321.84;7399170;19;2206;-38
2023/02/08 06:48:49;;;;;;;;;;;;;;;19.45;54.36;103321.19;7400128;19;1913;-38
2023/02/08 06:51:17;;;;;;;;;;;;;;;19.45;54.17;103324.75;7402041;19;2010;-38
2023/02/08 06:53:45;;;;;;;;;;;;;;;19.49;54.37;103333.53;7398276;19;1882;-37
2023/02/08 06:56:14;;;;;;;;;;;;;;;19.51;54.32;103330.75;7400533;19;2087;-37
2023/02/08 06:58:45;;;;;;;;;;;;;;;19.63;53.88;103311.34;7399603;19;2187;-38
2023/02/08 07:01:13;;;;;;;;;;;;;;;19.72;53.73;103340.47;7397815;19;2223;-37
2023/02/08 07:03:41;;;;;;;;;;;;;;;19.72;53.36;103335.09;7400511;19;1850;-38
2023/02/08 07:06:13;;;;;;;;;;;;;;;19.75;53.53;103324.19;7401322;19;1992;-37
2023/02/08 07:08:41;;;;;;;;;;;;;;;19.67;53.58;103337.09;7402322;19;1701;-35
2023/02/08 07:11:10;;;;;;;;;;;;;;;19.73;53.87;103326.06;7401831;19;1818;-35
2023/02/08 07:13:39;;;;;;;;;;;;;;;19.69;53.92;103329.84;7399818;19;1912;-35
2023/02/08 07:16:11;;;;;;;;;;;;;;;19.60;54.09;103335.69;7401500;19;2187;-35
2023/02/08 07:18:39;;;;;;;;;;;;;;;19.54;54.33;103341.38;7399554;19;2210;-35
2023/02/08 07:21:09;;;;;;;;;;;;;;;19.57;53.95;103349.25;7399506;19;1733;-35
2023/02/08 07:23:37;;;;;;;;;;;;;;;19.48;54.66;103338.03;7398798;19;1798;-35
2023/02/08 07:26:07;;;;;;;;;;;;;;;19.43;54.29;103345.41;7399730;19;1849;-37
2023/02/08 07:28:35;;;;;;;;;;;;;;;19.48;54.57;103340.72;7400247;19;1679;-37
2023/02/08 07:31:06;;;;;;;;;;;;;;;19.53;54.30;103350.34;7400719;19;2027;-37
2023/02/08 07:33:37;;;;;;;;;;;;;;;19.59;54.00;103345.53;7401380;19;1993;-37
2023/02/08 07:36:06;;;;;;;;;;;;;;;19.56;54.26;103369.00;7400846;19;2080;-37
2023/02/08 07:38:35;;;;;;;;;;;;;;;19.58;54.12;103334.91;7401250;19;2040;-37
2023/02/08 07:41:04;;;;;;;;;;;;;;;19.59;54.32;103355.41;7401219;19;2046;-38
2023/02/08 07:43:32;;;;;;;;;;;;;;;19.58;54.26;103340.25;7396709;19;1782;-38
2023/02/08 07:46:01;;;;;;;;;;;;;;;19.61;54.55;103359.75;7398720;19;1855;-37
2023/02/08 07:48:30;;;;;;;;;;;;;;;19.64;54.03;103353.38;7400383;19;1843;-38
2023/02/08 07:51:01;;;;;;;;;;;;;;;19.61;54.17;103358.88;7399821;19;1925;-38
2023/02/08 07:53:29;;;;;;;;;;;;;;;19.60;54.30;103362.53;7398685;19;2145;-38
2023/02/08 07:55:58;;;;;;;;;;;;;;;19.55;54.50;103370.78;7398808;19;2055;-38
2023/02/08 07:58:27;;;;;;;;;;;;;;;19.56;54.73;103356.44;7396323;19;1861;-37
2023/02/08 08:00:55;;;;;;;;;;;;;;;19.62;54.44;103387.47;7398114;19;1937;-35
2023/02/08 08:03:23;;;;;;;;;;;;;;;19.59;54.20;103360.78;7397748;19;2002;-35
2023/02/08 08:05:52;;;;;;;;;;;;;;;19.54;54.48;103373.56;7397747;19;2013;-35
2023/02/08 08:08:23;;;;;;;;;;;;;;;19.60;54.19;103384.00;7400022;19;1972;-35
2023/02/08 08:10:52;;;;;;;;;;;;;;;19.54;54.51;103374.44;7399269;19;2007;-35
2023/02/08 08:13:21;;;;;;;;;;;;;;;19.47;54.49;103378.34;7394814;19;2177;-35
2023/02/08 08:15:49;;;;;;;;;;;;;;;19.52;54.46;103372.75;7398608;19;1836;-35
2023/02/08 08:18:17;;;;;;;;;;;;;;;19.50;54.34;103380.00;7397155;19;2013;-35
2023/02/08 08:20:46;;;;;;;;;;;;;;;19.51;54.17;103384.44;7398162;19;1796;-35
2023/02/08 08:23:15;;;;;;;;;;;;;;;19.49;54.09;103389.88;7398925;19;1997;-35
2023/02/08 08:25:46;;;;;;;;;;;;;;;19.53;54.05;103398.66;7397201;19;1959;-35
2023/02/08 08:28:14;;;;;;;;;;;;;;;19.52;54.28;103399.59;7400683;19;2092;-36
2023/02/08 08:30:44;;;;;;;;;;;;;;;19.56;54.05;103409.25;7399460;19;2080;-36
2023/02/08 08:33:13;;;;;;;;;;;;;;;19.51;54.40;103405.91;7401134;19;2083;-36
2023/02/08 08:35:43;;;;;;;;;;;;;;;19.51;54.20;103413.97;7401306;19;1670;-36
2023/02/08 08:38:11;;;;;;;;;;;;;;;19.50;53.91;103399.69;7400790;19;1868;-36
2023/02/08 08:40:40;;;;;;;;;;;;;;;19.51;54.13;103412.13;7400631;19;2220;-36
2023/02/08 08:43:10;;;;;;;;;;;;;;;19.53;54.27;103412.94;7400116;19;1937;-36
2023/02/08 08:45:39;;;;;;;;;;;;;;;19.60;53.93;103417.06;7399485;19;2025;-35
2023/02/08 08:48:07;;;;;;;;;;;;;;;19.65;53.71;103424.88;7400180;19;2156;-36
2023/02/08 08:50:36;;;;;;;;;;;;;;;19.64;53.94;103434.75;7399240;19;1863;-36
2023/02/08 08:53:04;;;;;;;;;;;;;;;19.47;54.48;103429.34;7397104;19;1791;-36
2023/02/08 08:55:32;;;;;;;;;;;;;;;19.33;54.96;103435.38;7398725;19;1891;-35
2023/02/08 08:58:00;;;;;;;;;;;;;;;18.78;56.17;103432.50;7399865;19;1843;-36
2023/02/08 09:00:31;;;;;;;;;;;;;;;18.21;57.36;103446.59;7400046;19;1790;-36
2023/02/08 09:03:00;;;;;;;;;;;;;;;17.94;58.33;103437.03;7398517;19;1786;-36
2023/02/08 09:05:28;;;;;;;;;;;;;;;18.64;56.54;103431.34;7398988;19;2079;-35
2023/02/08 09:07:56;;;;;;;;;;;;;;;19.18;55.20;103425.34;7397741;19;2149;-36
2023/02/08 09:10:24;;;;;;;;;;;;;;;19.59;54.01;103419.81;7399968;19;1739;-35
2023/02/08 09:12:54;;;;;;;;;;;;;;;19.42;54.71;103424.19;7398825;19;2043;-35
2023/02/08 09:15:22;;;;;;;;;;;;;;;19.35;54.65;103437.97;7399683;19;1923;-35
2023/02/08 09:17:53;;;;;;;;;;;;;;;19.44;54.30;103448.28;7406574;19;1658;-35
2023/02/08 09:20:22;;;;;;;;;;;;;;;19.35;54.54;103433.47;7407613;19;1636;-35
2023/02/08 09:22:52;;;;;;;;;;;;;;;19.38;54.60;103462.00;7406989;19;2140;-35
2023/02/08 09:25:20;;;;;;;;;;;;;;;19.35;54.71;103444.22;7405417;19;2119;-35
2023/02/08 09:27:49;;;;;;;;;;;;;;;19.37;54.75;103439.63;7405804;19;2172;-35
2023/02/08 09:30:17;;;;;;;;;;;;;;;19.40;54.47;103457.44;7406494;19;2061;-35
2023/02/08 09:32:45;;;;;;;;;;;;;;;19.41;54.88;103437.69;7406358;19;2060;-35
2023/02/08 09:35:16;;;;;;;;;;;;;;;19.46;54.45;103435.66;7406772;19;1785;-35
2023/02/08 09:37:44;;;;;;;;;;;;;;;19.47;54.69;103432.03;7406371;19;2214;-35
2023/02/08 09:40:22;;;;;;;;;;;;;;;19.39;54.50;103444.94;7405030;19;2249;-35
2023/02/08 09:42:56;;;;;;;;;;;;;;;19.33;54.42;103432.69;7403568;19;2027;-35
2023/02/08 09:45:39;;;;;;;;;;;;;;;19.29;54.25;103444.50;7403927;19;1872;-35
2023/02/08 09:48:16;;;;;;;;;;;;;;;19.26;54.50;103429.44;7405514;19;1902;-35
2023/02/08 09:50:48;;;;;;;;;;;;;;;19.29;54.74;103436.44;7406697;19;1763;-35
2023/02/08 09:53:19;;;;;;;;;;;;;;;19.34;54.33;103442.47;7405498;19;2036;-35
2023/02/08 09:55:49;;;;;;;;;;;;;;;19.40;54.42;103430.59;7405787;19;1843;-35
2023/02/08 09:58:23;;;;;;;;;;;;;;;19.36;54.33;103445.97;7405666;19;1696;-35
2023/02/08 10:00:53;;;;;;;;;;;;;;;19.30;54.21;103442.69;7404088;19;2027;-35
2023/02/08 10:03:25;;;;;;;;;;;;;;;19.23;54.50;103434.06;7406205;19;1896;-35
2023/02/08 10:05:56;;;;;;;;;;;;;;;19.26;54.31;103436.63;7404275;19;1853;-35
2023/02/08 10:08:25;;;;;;;;;;;;;;;19.28;54.42;103437.41;7406125;19;2117;-35
2023/02/08 10:10:56;;;;;;;;;;;;;;;19.26;54.68;103433.94;7404971;19;2156;-35
2023/02/08 10:13:33;;;;;;;;;;;;;;;19.28;54.52;103448.16;7404155;19;2053;-36
2023/02/08 10:16:07;;;;;;;;;;;;;;;19.31;54.09;103441.75;7404844;19;2069;-35
2023/02/08 10:18:39;;;;;;;;;;;;;;;19.32;54.32;103455.09;7404149;19;1969;-35
2023/02/08 10:21:20;;;;;;;;;;;;;;;19.25;54.31;103429.50;7405479;19;2103;-35
2023/02/08 10:23:55;;;;;;;;;;;;;;;19.23;54.25;103434.91;7404701;19;2012;-35
2023/02/08 10:26:30;;;;;;;;;;;;;;;19.27;54.42;103446.38;7402911;19;1884;-35
2023/02/08 10:29:16;;;;;;;;;;;;;;;19.20;54.24;103428.81;7403485;19;1927;-35
2023/02/08 10:31:54;;;;;;;;;;;;;;;19.24;54.38;103442.03;7404319;19;1921;-35
2023/02/08 10:34:31;;;;;;;;;;;;;;;19.25;54.26;103437.53;7404867;19;2113;-35
2023/02/08 10:37:07;;;;;;;;;;;;;;;19.24;54.49;103435.81;7404633;19;2014;-35
2023/02/08 10:39:37;;;;;;;;;;;;;;;19.30;54.21;103440.88;7403968;19;2043;-36
2023/02/08 10:42:06;;;;;;;;;;;;;;;19.25;54.19;103422.31;7404817;19;2059;-35
2023/02/08 10:44:38;;;;;;;;;;;;;;;19.29;54.30;103433.78;7403534;19;1974;-35
2023/02/08 10:47:11;;;;;;;;;;;;;;;19.22;54.42;103432.34;7401482;19;1995;-35
2023/02/08 10:49:42;;;;;;;;;;;;;;;19.27;54.15;103438.34;7403904;19;2424;-36
2023/02/08 10:52:13;;;;;;;;;;;;;;;19.26;54.02;103447.34;7403992;19;1979;-35
2023/02/08 10:54:42;;;;;;;;;;;;;;;19.27;54.02;103436.50;7403533;19;2097;-35
2023/02/08 10:57:16;;;;;;;;;;;;;;;19.25;54.33;103416.06;7404573;19;1940;-36
2023/02/08 10:59:49;;;;;;;;;;;;;;;19.22;54.15;103426.97;7404700;19;1089;-35
2023/02/08 11:02:22;;;;;;;;;;;;;;;19.24;54.26;103425.94;7402043;19;2059;-35
2023/02/08 11:05:00;;;;;;;;;;;;;;;19.24;54.40;103425.09;7403427;19;1923;-35
2023/02/08 11:07:32;;;;;;;;;;;;;;;19.28;54.08;103434.72;7402971;19;1805;-36
2023/02/08 11:10:15;;;;;;;;;;;;;;;19.30;53.71;103419.44;7402160;19;2039;-35
2023/02/08 11:12:43;;;;;;;;;;;;;;;19.25;54.15;103421.44;7402905;19;1960;-36
2023/02/08 11:15:23;;;;;;;;;;;;;;;19.25;53.88;103419.63;7402581;19;2075;-35
2023/02/08 11:17:55;;;;;;;;;;;;;;;19.26;53.91;103423.19;7403063;19;2037;-35
2023/02/08 11:20:28;;;;;;;;;;;;;;;19.17;53.84;103421.81;7402965;19;2036;-36
2023/02/08 11:23:00;;;;;;;;;;;;;;;19.20;54.22;103427.03;7403462;19;2107;-35
2023/02/08 11:25:39;;;;;;;;;;;;;;;19.24;53.96;103444.72;7402869;19;1849;-36
2023/02/08 11:28:22;;;;;;;;;;;;;;;19.20;53.98;103419.00;7400877;19;1940;-35
2023/02/08 11:30:57;;;;;;;;;;;;;;;19.27;54.01;103422.25;7401085;19;1821;-35
2023/02/08 11:33:26;;;;;;;;;;;;;;;19.22;53.96;103430.50;7403189;19;2018;-35
2023/02/08 11:36:00;;;;;;;;;;;;;;;19.27;53.68;103422.25;7402750;19;1791;-35
2023/02/08 11:38:31;;;;;;;;;;;;;;;19.24;53.85;103435.81;7400177;19;1986;-35
2023/02/08 11:41:01;;;;;;;;;;;;;;;19.18;53.74;103414.63;7400923;19;2064;-36
2023/02/08 11:43:31;;;;;;;;;;;;;;;19.13;54.04;103428.25;7402486;19;2050;-35
2023/02/08 11:46:00;;;;;;;;;;;;;;;19.18;54.17;103428.03;7402547;19;2115;-36
2023/02/08 11:48:32;;;;;;;;;;;;;;;19.24;53.68;103435.81;7402846;19;2197;-35
2023/02/08 11:51:02;;;;;;;;;;;;;;;19.22;53.86;103445.75;7402477;19;1975;-36
2023/02/08 11:53:35;;;;;;;;;;;;;;;19.26;53.51;103428.56;7401300;19;2019;-35
2023/02/08 11:56:06;;;;;;;;;;;;;;;19.20;53.80;103429.72;7401341;19;2080;-35
2023/02/08 11:58:34;;;;;;;;;;;;;;;19.25;53.59;103437.53;7402181;19;1886;-36
2023/02/08 12:01:03;;;;;;;;;;;;;;;19.29;53.61;103428.41;7400795;19;2038;-36
2023/02/08 12:03:33;;;;;;;;;;;;;;;18.71;54.82;103442.66;7401318;19;1994;-36
2023/02/08 12:06:13;;;;;;;;;;;;;;;18.14;55.95;103436.19;7401314;19;2085;-36
2023/02/08 12:08:49;;;;;;;;;;;;;;;17.70;57.40;103439.72;7401727;19;1927;-36
2023/02/08 12:11:23;;;;;;;;;;;;;;;18.19;56.48;103456.50;7401717;19;2108;-36
2023/02/08 12:14:00;;;;;;;;;;;;;;;18.97;54.18;103444.19;7401593;19;1763;-36
2023/02/08 12:16:36;;;;;;;;;;;;;;;19.18;53.85;103430.72;7401937;19;1820;-35
2023/02/08 12:19:12;;;;;;;;;;;;;;;19.13;53.80;103430.94;7401703;19;2007;-36
2023/02/08 12:21:43;;;;;;;;;;;;;;;19.17;53.94;103445.06;7401897;19;2087;-36
2023/02/08 12:24:18;;;;;;;;;;;;;;;19.17;54.03;103445.94;7400825;19;2173;-36
2023/02/08 12:27:01;;;;;;;;;;;;;;;19.11;53.72;103431.97;7398948;19;2091;-36
2023/02/08 12:29:37;;;;;;;;;;;;;;;19.16;54.03;103452.25;7401456;19;1957;-37
2023/02/08 12:32:13;;;;;;;;;;;;;;;19.16;53.52;103433.50;7400116;19;2079;-37
2023/02/08 12:34:51;;;;;;;;;;;;;;;19.08;54.02;103443.72;7401575;19;1981;-36
2023/02/08 12:43:05;;;;;;;;;;;;;;;19.12;54.03;103434.56;7402569;19;1820;-36
2023/02/08 12:45:44;;;;;;;;;;;;;;;19.14;53.98;103440.75;7400238;19;2161;-36
2023/02/08 12:48:33;;;;;;;;;;;;;;;19.18;53.57;103446.81;7400239;19;2049;-36
2023/02/08 12:51:08;;;;;;;;;;;;;;;19.14;53.84;103439.84;7402643;19;2045;-37
2023/02/08 12:53:39;;;;;;;;;;;;;;;19.13;53.82;103435.44;7407913;19;1788;-37
2023/02/08 12:56:15;;;;;;;;;;;;;;;19.21;53.66;103460.94;7406641;19;2169;-36
2023/02/08 12:58:46;;;;;;;;;;;;;;;19.06;53.04;103433.03;7406272;19;2040;-36
2023/02/08 13:01:17;;;;;;;;;;;;;;;19.01;53.07;103447.59;7405974;19;2112;-36
2023/02/08 13:03:49;;;;;;;;;;;;;;;19.14;53.10;103462.19;7407382;19;1994;-36
2023/02/08 13:06:20;;;;;;;;;;;;;;;19.12;53.68;103472.13;7406365;19;1919;-36
2023/02/08 13:08:50;;;;;;;;;;;;;;;19.09;53.78;103456.16;7407404;19;1703;-36
2023/02/08 13:11:25;;;;;;;;;;;;;;;18.94;53.48;103459.53;7407465;19;1783;-36